createdAt,value
2022-10-17T04:08:26.988Z,14.49
2022-10-17T04:11:33.955Z,14.53
2022-10-17T04:14:03.697Z,14.45
2022-10-17T04:16:31.529Z,14.38
2022-10-17T04:19:02.969Z,14.39
2022-10-17T04:21:36.327Z,14.32
2022-10-17T04:24:09.601Z,14.40
2022-10-17T04:27:08.919Z,14.44
2022-10-17T04:29:40.188Z,14.61
2022-10-17T04:32:15.169Z,14.67
2022-10-17T04:34:52.960Z,14.61
2022-10-17T04:37:22.679Z,14.66
2022-10-17T04:39:52.059Z,14.80
2022-10-17T04:42:19.378Z,14.77
2022-10-17T04:44:47.136Z,14.77
2022-10-17T04:47:17.264Z,14.90
2022-10-17T04:49:45.856Z,14.80
2022-10-17T04:52:14.839Z,14.88
2022-10-17T04:54:48.448Z,14.76
2022-10-17T04:57:15.700Z,15.02
2022-10-17T04:59:51.657Z,14.80
2022-10-17T05:02:25.157Z,14.88
2022-10-17T05:04:53.661Z,14.87
2022-10-17T05:07:21.780Z,14.98
2022-10-17T05:09:59.080Z,14.90
2022-10-17T05:12:27.047Z,14.93
2022-10-17T05:14:55.203Z,15.15
2022-10-17T05:17:25.456Z,15.28
2022-10-17T05:19:53.108Z,15.27
2022-10-17T05:22:20.365Z,15.20
2022-10-17T05:24:48.465Z,15.25
2022-10-17T05:27:16.103Z,15.25
2022-10-17T05:29:43.359Z,15.30
2022-10-17T05:32:19.865Z,15.29
2022-10-17T05:34:47.810Z,15.43
2022-10-17T05:37:16.020Z,15.42
2022-10-17T05:39:51.375Z,15.37
2022-10-17T05:42:19.928Z,15.42
2022-10-17T05:44:48.491Z,15.43
2022-10-17T05:47:18.334Z,15.45
2022-10-17T05:49:49.941Z,15.67
2022-10-17T05:52:22.152Z,15.78
2022-10-17T05:55:00.528Z,15.82
2022-10-17T05:57:28.319Z,15.93
2022-10-17T05:59:57.047Z,15.90
2022-10-17T06:02:24.550Z,15.98
2022-10-17T06:04:53.123Z,15.94
2022-10-17T06:07:23.317Z,15.96
2022-10-17T06:09:50.879Z,16.04
2022-10-17T06:12:18.713Z,15.95
2022-10-17T06:14:47.245Z,16.01
2022-10-17T06:17:16.555Z,16.14
2022-10-17T06:19:45.134Z,16.05
2022-10-17T06:22:15.124Z,15.99
2022-10-17T06:24:43.297Z,15.81
2022-10-17T06:27:13.421Z,15.98
2022-10-17T06:29:41.777Z,16.11
2022-10-17T06:32:12.623Z,16.28
2022-10-17T06:34:43.847Z,16.17
2022-10-17T06:37:11.759Z,16.24
2022-10-17T06:39:40.959Z,16.28
2022-10-17T06:42:13.511Z,16.31
2022-10-17T06:45:02.572Z,16.48
2022-10-17T06:47:42.984Z,16.38
2022-10-17T06:50:40.713Z,16.46
2022-10-17T06:53:15.332Z,16.53
2022-10-17T06:55:53.948Z,16.74
2022-10-17T06:58:37.044Z,16.74
2022-10-17T07:01:23.277Z,16.97
2022-10-17T07:03:55.630Z,17.22
2022-10-17T07:06:26.953Z,17.28
2022-10-17T07:09:01.315Z,17.64
2022-10-17T07:11:29.176Z,17.51
2022-10-17T07:13:56.475Z,17.55
2022-10-17T07:16:24.467Z,17.47
2022-10-17T07:19:00.090Z,17.87
2022-10-17T07:21:27.493Z,18.23
2022-10-17T07:23:54.844Z,17.96
2022-10-17T07:26:22.757Z,17.85
2022-10-17T07:28:55.531Z,17.68
2022-10-17T07:31:32.479Z,17.84
2022-10-17T07:34:00.869Z,17.99
2022-10-17T07:36:30.091Z,17.98
2022-10-17T07:39:00.028Z,17.76
2022-10-17T07:41:28.517Z,17.76
2022-10-17T07:43:55.976Z,18.03
2022-10-17T07:46:29.295Z,17.93
2022-10-17T07:48:56.674Z,17.91
2022-10-17T07:51:24.720Z,18.02
2022-10-17T07:53:52.049Z,18.03
2022-10-17T07:56:19.322Z,18.15
2022-10-17T07:58:48.246Z,17.98
2022-10-17T08:01:16.238Z,18.16
2022-10-17T08:03:45.021Z,18.04
2022-10-17T08:06:13.219Z,17.93
2022-10-17T08:08:41.149Z,18.31
2022-10-17T08:11:10.876Z,18.44
2022-10-17T08:13:40.463Z,18.30
2022-10-17T08:16:11.017Z,18.55
2022-10-17T08:18:39.910Z,18.29
2022-10-17T08:21:08.511Z,18.41
2022-10-17T08:23:36.582Z,18.31
2022-10-17T08:26:06.316Z,18.39
2022-10-17T08:28:36.083Z,18.41
2022-10-17T08:31:06.393Z,18.65
2022-10-17T08:33:34.023Z,18.92
2022-10-17T08:36:05.340Z,18.86
2022-10-17T08:38:35.610Z,18.69
2022-10-17T08:41:32.146Z,19.15
2022-10-17T08:44:18.118Z,19.03
2022-10-17T08:46:51.021Z,18.90
2022-10-17T08:49:33.921Z,19.24
2022-10-17T08:52:25.408Z,19.17
2022-10-17T08:54:52.821Z,19.19
2022-10-17T08:57:20.169Z,18.98
2022-10-17T08:59:52.114Z,18.90
2022-10-17T09:02:40.001Z,19.44
2022-10-17T09:05:22.529Z,19.80
2022-10-17T09:07:52.829Z,19.89
2022-10-17T09:10:55.984Z,19.97
2022-10-17T09:13:38.369Z,20.47
2022-10-17T09:16:11.723Z,20.23
2022-10-17T09:18:43.021Z,20.35
2022-10-17T09:21:10.634Z,20.33
2022-10-17T09:23:59.526Z,20.52
2022-10-17T09:26:42.069Z,20.54
2022-10-17T09:29:17.944Z,20.38
2022-10-17T09:32:00.155Z,20.55
2022-10-17T09:34:29.821Z,20.36
2022-10-17T09:37:00.009Z,20.33
2022-10-17T09:39:31.931Z,20.53
2022-10-17T09:42:01.476Z,20.91
2022-10-17T09:44:51.677Z,21.02
2022-10-17T09:47:22.590Z,20.61
2022-10-17T09:49:51.086Z,21.01
2022-10-17T09:52:30.090Z,20.54
2022-10-17T09:55:04.166Z,21.01
2022-10-17T09:58:02.302Z,21.29
2022-10-17T10:00:30.773Z,21.42
2022-10-17T10:03:25.939Z,21.56
2022-10-17T10:06:06.388Z,21.31
2022-10-17T10:08:51.499Z,21.38
2022-10-17T10:11:23.455Z,21.78
2022-10-17T10:13:51.244Z,22.06
2022-10-17T10:16:31.530Z,21.96
2022-10-17T10:18:59.187Z,21.76
2022-10-17T10:21:27.965Z,21.37
2022-10-17T10:24:10.479Z,20.82
2022-10-17T10:26:40.548Z,21.41
2022-10-17T10:29:34.194Z,20.91
2022-10-17T10:32:27.664Z,21.02
2022-10-17T10:35:00.406Z,21.38
2022-10-17T10:37:42.271Z,21.32
2022-10-17T10:40:35.145Z,20.87
2022-10-17T10:43:05.569Z,21.71
2022-10-17T10:45:47.546Z,22.34
2022-10-17T10:48:34.234Z,22.83
2022-10-17T10:51:04.723Z,21.75
2022-10-17T10:54:19.358Z,22.89
2022-10-17T10:56:53.493Z,23.14
2022-10-17T10:59:36.020Z,23.34
2022-10-17T11:02:21.954Z,23.39
2022-10-17T11:05:01.601Z,23.12
2022-10-17T11:08:04.206Z,22.84
2022-10-17T11:10:44.347Z,23.04
2022-10-17T11:13:29.017Z,23.45
2022-10-17T11:16:07.258Z,23.53
2022-10-17T11:18:46.720Z,23.93
2022-10-17T11:24:39.194Z,23.11
2022-10-17T11:27:08.092Z,22.68
2022-10-17T11:29:39.288Z,22.56
2022-10-17T11:32:25.999Z,22.95
2022-10-17T11:35:02.152Z,22.33
2022-10-17T11:37:42.897Z,22.73
2022-10-17T11:40:36.705Z,22.78
2022-10-17T11:43:17.641Z,23.03
2022-10-17T11:45:55.520Z,23.37
2022-10-17T11:48:36.925Z,22.94
2022-10-17T11:54:29.760Z,24.46
2022-10-17T11:57:34.787Z,24.51
2022-10-17T12:00:17.192Z,24.70
2022-10-17T12:03:00.666Z,24.67
2022-10-17T12:05:51.471Z,24.82
2022-10-17T12:08:45.329Z,24.15
2022-10-17T12:11:29.677Z,23.92
2022-10-17T12:13:57.528Z,24.55
2022-10-17T12:16:24.761Z,24.63
2022-10-17T12:19:21.475Z,24.06
2022-10-17T12:21:56.416Z,24.67
2022-10-17T12:24:35.344Z,24.45
2022-10-17T12:27:31.087Z,24.67
2022-10-17T12:30:16.309Z,24.76
2022-10-17T12:33:25.848Z,24.71
2022-10-17T12:36:27.253Z,25.24
2022-10-17T12:39:03.618Z,25.43
2022-10-17T12:41:51.308Z,24.90
2022-10-17T12:44:21.399Z,24.95
2022-10-17T12:46:51.396Z,25.60
2022-10-17T12:49:38.145Z,25.90
2022-10-17T12:52:17.376Z,26.06
2022-10-17T12:55:12.565Z,26.41
2022-10-17T12:58:02.570Z,26.26
2022-10-17T13:01:05.274Z,26.10
2022-10-17T13:03:44.358Z,26.45
2022-10-17T13:06:21.272Z,26.57
2022-10-17T13:09:03.474Z,26.32
2022-10-17T13:11:34.697Z,25.97
2022-10-17T13:14:09.239Z,26.02
2022-10-17T13:16:39.260Z,26.58
2022-10-17T13:19:18.938Z,26.62
2022-10-17T13:22:17.428Z,26.79
2022-10-17T13:24:45.243Z,27.59
2022-10-17T13:27:31.048Z,32.06
2022-10-17T13:30:00.756Z,33.78
2022-10-17T13:32:37.691Z,34.73
2022-10-17T13:35:07.250Z,35.84
2022-10-17T13:37:35.897Z,33.59
2022-10-17T13:40:17.466Z,36.74
2022-10-17T13:42:55.867Z,39.35
2022-10-17T13:45:29.659Z,37.00
2022-10-17T13:47:59.856Z,39.27
2022-10-17T13:50:45.230Z,39.91
2022-10-17T13:53:12.803Z,38.14
2022-10-17T13:56:09.129Z,37.62
2022-10-17T13:58:43.323Z,37.25
2022-10-17T14:01:12.712Z,38.29
2022-10-17T14:03:49.795Z,39.91
2022-10-17T14:06:22.182Z,38.58
2022-10-17T14:08:58.401Z,40.38
2022-10-17T14:11:32.236Z,41.32
2022-10-17T14:14:03.175Z,42.14
2022-10-17T14:16:41.172Z,42.22
2022-10-17T14:19:30.132Z,37.63
2022-10-17T14:22:24.562Z,36.22
2022-10-17T14:24:53.411Z,32.77
2022-10-17T14:27:32.030Z,30.87
2022-10-17T14:30:02.640Z,29.95
2022-10-17T14:35:40.326Z,27.37
2022-10-17T14:37:59.273Z,27.48
2022-10-17T14:40:28.969Z,27.75
2022-10-17T14:42:59.134Z,27.26
2022-10-17T14:45:30.415Z,26.90
2022-10-17T14:48:03.995Z,26.64
2022-10-17T14:50:33.140Z,26.98
2022-10-17T14:53:21.098Z,26.85
2022-10-17T14:56:00.464Z,26.53
2022-10-17T14:58:33.684Z,26.25
2022-10-17T15:01:02.182Z,25.99
2022-10-17T15:03:30.014Z,26.13
2022-10-17T15:05:59.311Z,25.84
2022-10-17T15:08:27.080Z,25.98
2022-10-17T15:10:54.362Z,26.01
2022-10-17T15:13:31.241Z,26.08
2022-10-17T15:16:01.393Z,26.79
2022-10-17T15:18:28.590Z,28.21
2022-10-17T15:21:04.771Z,29.12
2022-10-17T15:23:34.216Z,28.97
2022-10-17T15:26:01.960Z,28.27
2022-10-17T15:28:29.851Z,28.62
2022-10-17T15:30:57.106Z,28.06
2022-10-17T15:33:24.412Z,27.45
2022-10-17T15:35:52.574Z,26.87
2022-10-17T15:38:20.152Z,26.47
2022-10-17T15:40:53.138Z,26.53
2022-10-17T15:43:20.398Z,26.54
2022-10-17T15:45:48.301Z,26.23
2022-10-17T15:48:24.377Z,25.72
2022-10-17T15:50:52.234Z,25.28
2022-10-17T15:53:19.580Z,24.81
2022-10-17T15:55:50.003Z,24.28
2022-10-17T15:58:19.740Z,23.84
2022-10-17T16:00:48.667Z,23.53
2022-10-17T16:03:16.449Z,23.53
2022-10-17T16:05:43.864Z,23.27
2022-10-17T16:08:11.240Z,22.97
2022-10-17T16:10:41.034Z,22.95
2022-10-17T16:13:17.877Z,22.89
2022-10-17T16:15:45.200Z,22.52
2022-10-17T16:18:12.660Z,22.32
2022-10-17T16:20:40.315Z,22.09
2022-10-17T16:23:08.436Z,22.09
2022-10-17T16:25:35.764Z,21.98
2022-10-17T16:28:04.118Z,21.96
2022-10-17T16:30:32.451Z,21.76
2022-10-17T16:33:00.251Z,21.74
2022-10-17T16:35:33.395Z,21.65
2022-10-17T16:38:06.743Z,21.47
2022-10-17T16:40:34.555Z,21.12
2022-10-17T16:43:02.380Z,21.04
2022-10-17T16:45:30.652Z,21.00
2022-10-17T16:47:57.945Z,20.88
2022-10-17T16:50:26.049Z,20.80
2022-10-17T16:52:53.408Z,20.72
2022-10-17T16:55:21.369Z,20.61
2022-10-17T16:57:49.438Z,20.59
2022-10-17T17:00:17.872Z,20.52
2022-10-17T17:02:47.881Z,20.42
2022-10-17T17:05:15.769Z,20.37
2022-10-17T17:07:43.546Z,20.35
2022-10-17T17:10:10.843Z,20.31
2022-10-17T17:12:38.080Z,20.23
2022-10-17T17:15:06.325Z,20.15
2022-10-17T17:17:49.561Z,20.13
2022-10-17T17:20:20.057Z,20.05
2022-10-17T17:22:48.788Z,20.21
2022-10-17T17:25:16.340Z,20.13
2022-10-17T17:27:43.639Z,20.06
2022-10-17T17:30:11.375Z,19.98
2022-10-17T17:32:38.629Z,19.89
2022-10-17T17:35:06.445Z,19.82
2022-10-17T17:37:34.252Z,19.81
2022-10-17T17:40:02.180Z,19.77
2022-10-17T17:42:29.917Z,19.72
2022-10-17T17:45:00.015Z,19.72
2022-10-17T17:47:29.643Z,19.63
2022-10-17T17:49:57.216Z,19.48
2022-10-17T17:52:24.516Z,19.43
2022-10-17T17:54:51.781Z,19.43
2022-10-17T17:57:19.308Z,19.41
2022-10-17T17:59:48.467Z,19.37
2022-10-17T18:02:16.256Z,19.36
2022-10-17T18:04:43.737Z,19.32
2022-10-17T18:07:10.976Z,19.27
2022-10-17T18:09:38.724Z,19.25
2022-10-17T18:12:05.960Z,19.25
2022-10-17T18:14:33.204Z,19.15
2022-10-17T18:17:00.468Z,19.10
2022-10-17T18:19:28.910Z,19.09
2022-10-17T18:21:56.809Z,19.06
2022-10-17T18:24:24.603Z,19.03
2022-10-17T18:26:55.956Z,18.90
2022-10-17T18:29:23.197Z,18.89
2022-10-17T18:31:50.436Z,18.82
2022-10-17T18:34:18.201Z,18.77
2022-10-17T18:36:45.604Z,18.73
2022-10-17T18:39:12.921Z,18.83
2022-10-17T18:41:40.773Z,18.87
2022-10-17T18:44:08.169Z,18.80
2022-10-17T18:46:40.619Z,18.72
2022-10-17T18:49:10.936Z,18.63
2022-10-17T18:51:38.802Z,18.58
2022-10-17T18:54:11.383Z,18.56
2022-10-17T18:56:39.160Z,18.57
2022-10-17T18:59:06.620Z,18.74
2022-10-17T19:01:34.328Z,19.04
2022-10-17T19:04:02.029Z,19.07
2022-10-17T19:06:31.897Z,18.94
2022-10-17T19:09:00.969Z,19.01
2022-10-17T19:11:30.509Z,18.76
2022-10-17T19:14:01.084Z,18.81
2022-10-17T19:16:35.391Z,18.87
2022-10-17T19:19:06.851Z,18.81
2022-10-17T19:21:34.725Z,18.84
2022-10-17T19:24:05.055Z,18.56
2022-10-17T19:26:36.293Z,18.40
2022-10-17T19:29:04.734Z,18.52
2022-10-17T19:31:34.338Z,18.48
2022-10-17T19:34:03.209Z,18.36
2022-10-17T19:36:34.057Z,18.34
2022-10-17T19:39:07.200Z,18.28
2022-10-17T19:41:36.439Z,18.36
2022-10-17T19:44:03.736Z,18.33
2022-10-17T19:46:32.060Z,18.30
2022-10-17T19:48:59.872Z,18.15
2022-10-17T19:51:28.943Z,18.00
2022-10-17T19:54:00.393Z,17.89
2022-10-17T19:56:30.568Z,18.00
2022-10-17T19:58:59.122Z,18.03
2022-10-17T20:01:29.592Z,17.95
2022-10-17T20:03:57.242Z,17.89
2022-10-17T20:06:24.708Z,17.78
2022-10-17T20:08:53.211Z,17.78
2022-10-17T20:11:24.192Z,17.74
2022-10-17T20:13:52.746Z,17.72
2022-10-17T20:16:22.884Z,17.66
2022-10-17T20:18:52.364Z,17.53
2022-10-17T20:21:23.150Z,17.46
2022-10-17T20:23:51.525Z,17.38
2022-10-17T20:26:33.505Z,17.38
2022-10-17T20:29:08.861Z,17.36
2022-10-17T20:31:36.519Z,17.32
2022-10-17T20:34:04.705Z,17.32
2022-10-17T20:36:36.538Z,17.27
2022-10-17T20:39:04.808Z,17.26
2022-10-17T20:41:32.362Z,17.17
2022-10-17T20:43:59.583Z,17.17
2022-10-17T20:46:36.869Z,17.18
2022-10-17T20:49:07.368Z,17.34
2022-10-17T20:51:35.693Z,17.31
2022-10-17T20:54:03.730Z,17.13
2022-10-17T20:56:34.013Z,17.10
2022-10-17T20:59:05.739Z,17.02
2022-10-17T21:01:34.965Z,16.97
2022-10-17T21:04:27.026Z,16.96
2022-10-17T21:06:52.052Z,17.10
2022-10-17T21:09:20.181Z,17.12
2022-10-17T21:11:51.054Z,17.11
2022-10-17T21:14:18.545Z,16.95
2022-10-17T21:16:45.853Z,16.93
2022-10-17T21:19:14.907Z,16.86
2022-10-17T21:21:44.837Z,16.91
2022-10-17T21:24:16.738Z,16.92
2022-10-17T21:26:45.436Z,16.64
2022-10-17T21:29:14.006Z,16.74
2022-10-17T21:31:43.857Z,16.72
2022-10-17T21:34:14.133Z,16.70
2022-10-17T21:36:42.167Z,16.71
2022-10-17T21:39:11.773Z,16.72
2022-10-17T21:41:39.069Z,16.72
2022-10-17T21:44:18.206Z,16.67
2022-10-17T21:46:46.644Z,16.60
